Time;durP1;ratioP1;P1;durP2;ratioP2;P2;SDS_P1;SDS_P2;PMS_P1;PMS_P2;Temp;Humidity;BMP_temperature;BMP_pressure;BME280_temperature;BME280_humidity;BME280_pressure;Samples;Min_cycle;Max_cycle;Signal;HPM_P1;HPM_P2
2021/12/31 00:01:30;;;;;;;41.13;29.85;;;;;;;;;;10024571;29;20075;-59
2021/12/31 00:06:28;;;;;;;22.35;17.25;;;;;;;;;;10030107;29;20191;-58
2021/12/31 00:11:27;;;;;;;32.80;24.00;;;;;;;;;;10034286;29;20097;-59
2021/12/31 00:16:26;;;;;;;36.72;24.88;;;;;;;;;;10031043;29;20064;-60
2021/12/31 00:21:25;;;;;;;66.55;45.38;;;;;;;;;;10005147;29;20075;-59
2021/12/31 00:26:23;;;;;;;85.80;52.03;;;;;;;;;;10029282;29;20112;-59
2021/12/31 00:31:21;;;;;;;88.10;53.40;;;;;;;;;;10028955;29;20083;-59
2021/12/31 00:36:21;;;;;;;36.67;26.23;;;;;;;;;;10033874;29;20074;-59
2021/12/31 00:41:19;;;;;;;46.63;29.48;;;;;;;;;;10000279;29;20473;-58
2021/12/31 00:46:17;;;;;;;40.38;28.90;;;;;;;;;;10019671;29;20116;-59
2021/12/31 00:51:16;;;;;;;26.63;21.27;;;;;;;;;;10017470;29;20075;-58
2021/12/31 00:56:15;;;;;;;26.25;20.40;;;;;;;;;;10030054;29;20098;-59
2021/12/31 01:01:18;;;;;;;22.77;17.40;;;;;;;;;;10008999;29;20531;-59
2021/12/31 01:06:16;;;;;;;20.48;16.95;;;;;;;;;;10014250;29;20086;-58
2021/12/31 01:11:16;;;;;;;19.02;15.60;;;;;;;;;;10009128;29;20445;-58
2021/12/31 01:16:15;;;;;;;20.40;15.95;;;;;;;;;;10002673;29;20513;-59
2021/12/31 01:21:13;;;;;;;17.10;13.10;;;;;;;;;;10002487;29;20079;-59
2021/12/31 01:26:11;;;;;;;16.27;13.40;;;;;;;;;;10009326;29;20075;-58
2021/12/31 01:31:11;;;;;;;17.17;14.38;;;;;;;;;;10027544;29;20477;-58
2021/12/31 01:36:09;;;;;;;17.30;13.65;;;;;;;;;;10032217;29;20114;-58
2021/12/31 01:41:08;;;;;;;13.35;11.32;;;;;;;;;;10000460;29;20075;-58
2021/12/31 01:46:11;;;;;;;20.85;15.38;;;;;;;;;;10017242;29;20074;-59
2021/12/31 01:51:11;;;;;;;15.75;13.98;;;;;;;;;;10031664;29;20094;-59
2021/12/31 01:56:09;;;;;;;17.48;13.23;;;;;;;;;;10035380;29;20082;-57
2021/12/31 02:01:08;;;;;;;15.73;12.02;;;;;;;;;;10019635;29;20087;-58
2021/12/31 02:06:07;;;;;;;14.65;11.70;;;;;;;;;;10022000;29;20175;-58
2021/12/31 02:11:07;;;;;;;14.75;10.82;;;;;;;;;;10022859;29;20047;-58
2021/12/31 02:16:05;;;;;;;14.85;11.95;;;;;;;;;;10032839;29;20159;-58
2021/12/31 02:21:08;;;;;;;14.40;12.18;;;;;;;;;;10007017;29;20087;-59
2021/12/31 02:26:08;;;;;;;12.40;10.48;;;;;;;;;;10024955;29;20069;-58
2021/12/31 02:31:07;;;;;;;12.68;11.07;;;;;;;;;;10028645;29;20471;-58
2021/12/31 02:36:08;;;;;;;12.13;10.77;;;;;;;;;;10004154;29;20521;-58
2021/12/31 02:41:06;;;;;;;17.33;13.00;;;;;;;;;;9991480;29;20485;-58
2021/12/31 02:46:04;;;;;;;18.70;13.68;;;;;;;;;;10007072;29;20498;-58
2021/12/31 02:51:03;;;;;;;14.70;12.95;;;;;;;;;;10028147;29;20079;-58
2021/12/31 02:56:04;;;;;;;18.45;15.80;;;;;;;;;;10011418;29;20070;-59
2021/12/31 03:01:03;;;;;;;16.40;14.65;;;;;;;;;;10011132;29;20453;-59
2021/12/31 03:06:02;;;;;;;25.55;21.65;;;;;;;;;;10010110;29;20136;-59
2021/12/31 03:11:02;;;;;;;18.23;13.25;;;;;;;;;;10004194;29;20131;-59
2021/12/31 03:16:03;;;;;;;15.85;13.07;;;;;;;;;;9998358;29;20075;-59
2021/12/31 03:21:06;;;;;;;16.10;12.75;;;;;;;;;;10006316;29;20083;-59
2021/12/31 03:26:04;;;;;;;15.02;12.00;;;;;;;;;;10031235;29;20071;-59
2021/12/31 03:31:04;;;;;;;14.05;10.95;;;;;;;;;;10035105;29;20102;-59
2021/12/31 03:36:02;;;;;;;14.00;11.90;;;;;;;;;;10001733;29;20082;-59
2021/12/31 03:41:01;;;;;;;14.65;11.23;;;;;;;;;;10037774;29;20441;-57
2021/12/31 03:45:59;;;;;;;15.27;12.48;;;;;;;;;;10035125;29;20083;-58
2021/12/31 03:50:59;;;;;;;14.57;11.68;;;;;;;;;;10036975;29;20087;-59
2021/12/31 03:55:57;;;;;;;13.90;11.63;;;;;;;;;;10004063;29;20537;-58
2021/12/31 04:00:55;;;;;;;19.35;12.05;;;;;;;;;;10012067;29;20088;-58
2021/12/31 04:05:54;;;;;;;15.93;13.65;;;;;;;;;;10020158;29;20097;-58
2021/12/31 04:10:54;;;;;;;13.38;10.85;;;;;;;;;;10028096;29;20075;-59
2021/12/31 04:15:52;;;;;;;19.13;12.23;;;;;;;;;;10009208;29;20107;-59
2021/12/31 04:20:50;;;;;;;13.02;11.27;;;;;;;;;;10005040;29;20529;-59
2021/12/31 04:25:49;;;;;;;14.07;12.27;;;;;;;;;;10005940;29;20106;-58
2021/12/31 04:30:48;;;;;;;13.77;11.80;;;;;;;;;;10008849;29;20071;-59
2021/12/31 04:35:47;;;;;;;16.60;13.55;;;;;;;;;;10009515;29;20071;-59
2021/12/31 04:40:45;;;;;;;16.30;11.68;;;;;;;;;;9993542;29;20175;-59
2021/12/31 04:45:43;;;;;;;14.10;11.95;;;;;;;;;;9992712;29;20541;-59
2021/12/31 04:50:43;;;;;;;16.25;11.63;;;;;;;;;;9991566;29;20074;-60
2021/12/31 04:55:42;;;;;;;16.52;12.63;;;;;;;;;;10000043;29;20079;-59
2021/12/31 05:00:40;;;;;;;14.68;12.13;;;;;;;;;;10001658;29;20087;-58
2021/12/31 05:05:39;;;;;;;17.35;13.02;;;;;;;;;;10017388;29;20587;-58
2021/12/31 05:10:38;;;;;;;18.02;16.10;;;;;;;;;;10018683;29;20478;-59
2021/12/31 05:15:44;;;;;;;28.00;20.45;;;;;;;;;;10021786;29;20098;-59
2021/12/31 05:20:43;;;;;;;20.73;13.73;;;;;;;;;;10020693;29;20079;-59
2021/12/31 05:25:42;;;;;;;17.80;13.32;;;;;;;;;;9997384;29;20466;-59
2021/12/31 05:30:41;;;;;;;20.33;13.70;;;;;;;;;;9985648;29;20115;-58
2021/12/31 05:35:39;;;;;;;18.13;14.40;;;;;;;;;;9995612;29;20627;-59
2021/12/31 05:40:37;;;;;;;13.40;11.15;;;;;;;;;;9994952;29;20083;-58
2021/12/31 05:45:39;;;;;;;12.52;10.75;;;;;;;;;;9992337;29;20088;-59
2021/12/31 05:50:53;;;;;;;13.57;11.15;;;;;;;;;;9986825;29;20076;-55
2021/12/31 05:55:51;;;;;;;14.73;10.55;;;;;;;;;;9972760;29;20068;-59
2021/12/31 06:00:51;;;;;;;17.40;13.70;;;;;;;;;;9992946;29;20083;-58
2021/12/31 06:05:50;;;;;;;15.50;13.68;;;;;;;;;;9988414;29;20071;-58
2021/12/31 06:10:48;;;;;;;18.45;15.15;;;;;;;;;;9980667;29;20091;-57
2021/12/31 06:15:49;;;;;;;29.50;19.80;;;;;;;;;;10004872;29;20071;-59
2021/12/31 06:20:48;;;;;;;97.80;49.88;;;;;;;;;;10006396;29;20083;-57
2021/12/31 06:25:47;;;;;;;84.57;37.08;;;;;;;;;;9989535;29;20466;-58
2021/12/31 06:30:45;;;;;;;25.25;20.38;;;;;;;;;;9989327;29;20076;-58
2021/12/31 06:35:43;;;;;;;32.35;25.70;;;;;;;;;;9989061;29;20083;-58
2021/12/31 06:40:43;;;;;;;52.40;28.17;;;;;;;;;;10009057;28;20473;-59
2021/12/31 06:45:41;;;;;;;108.97;61.42;;;;;;;;;;10025645;29;20082;-58
2021/12/31 06:50:40;;;;;;;54.00;34.90;;;;;;;;;;9985030;29;20490;-56
2021/12/31 06:55:38;;;;;;;51.30;35.58;;;;;;;;;;9970988;29;20076;-58
2021/12/31 07:00:38;;;;;;;31.00;25.67;;;;;;;;;;9986894;29;20083;-58
2021/12/31 07:05:37;;;;;;;37.88;27.98;;;;;;;;;;9983992;29;20064;-57
2021/12/31 07:10:35;;;;;;;32.47;26.02;;;;;;;;;;9993550;29;20090;-58
2021/12/31 07:15:33;;;;;;;20.60;17.65;;;;;;;;;;9985245;29;20369;-59
2021/12/31 07:20:33;;;;;;;23.15;18.17;;;;;;;;;;9982252;29;20132;-59
2021/12/31 07:25:32;;;;;;;18.02;14.48;;;;;;;;;;9993995;29;20356;-59
2021/12/31 07:30:30;;;;;;;18.90;14.82;;;;;;;;;;9975653;29;20110;-59
2021/12/31 07:35:29;;;;;;;21.27;14.98;;;;;;;;;;9996787;29;20486;-58
2021/12/31 07:40:38;;;;;;;15.02;11.95;;;;;;;;;;9999712;29;20083;-58
2021/12/31 07:45:36;;;;;;;14.65;12.52;;;;;;;;;;10008483;29;20064;-59
2021/12/31 07:50:36;;;;;;;20.67;16.25;;;;;;;;;;10019294;29;20117;-59
2021/12/31 07:55:36;;;;;;;18.52;15.52;;;;;;;;;;9998518;29;20860;-59
2021/12/31 08:00:35;;;;;;;14.52;11.95;;;;;;;;;;9994366;29;20080;-59
2021/12/31 08:05:34;;;;;;;16.25;14.32;;;;;;;;;;10012819;29;20079;-59
2021/12/31 08:10:33;;;;;;;12.70;9.82;;;;;;;;;;10028156;29;20068;-59
2021/12/31 08:15:53;;;;;;;19.58;14.60;;;;;;;;;;10005775;29;20132;-55
2021/12/31 08:20:51;;;;;;;24.15;19.10;;;;;;;;;;9999057;29;20083;-56
2021/12/31 08:25:49;;;;;;;23.38;18.63;;;;;;;;;;10025247;29;20087;-57
2021/12/31 08:30:48;;;;;;;42.65;37.97;;;;;;;;;;10030244;29;20098;-58
2021/12/31 08:35:47;;;;;;;36.53;28.27;;;;;;;;;;10005867;29;20521;-58
2021/12/31 08:40:46;;;;;;;32.67;26.52;;;;;;;;;;10026899;29;20152;-58
2021/12/31 08:45:44;;;;;;;36.00;26.70;;;;;;;;;;9999395;29;20090;-59
2021/12/31 08:50:43;;;;;;;32.25;23.63;;;;;;;;;;10023524;29;20131;-59
2021/12/31 08:55:43;;;;;;;35.05;26.48;;;;;;;;;;9996096;29;20083;-59
2021/12/31 09:00:41;;;;;;;35.00;25.35;;;;;;;;;;9997583;29;20091;-59
2021/12/31 09:05:39;;;;;;;26.25;20.25;;;;;;;;;;9997280;29;20067;-59
2021/12/31 09:10:38;;;;;;;31.98;23.40;;;;;;;;;;9999788;29;20094;-59
2021/12/31 09:15:37;;;;;;;21.52;18.70;;;;;;;;;;10026453;29;20080;-59
2021/12/31 09:20:36;;;;;;;24.35;19.52;;;;;;;;;;10029541;29;20378;-59
2021/12/31 09:25:34;;;;;;;48.05;31.63;;;;;;;;;;10013727;29;20080;-59
2021/12/31 09:30:33;;;;;;;45.17;28.42;;;;;;;;;;9989107;29;20123;-59
2021/12/31 09:35:33;;;;;;;25.13;18.45;;;;;;;;;;10000657;29;20522;-59
2021/12/31 09:40:31;;;;;;;44.88;31.20;;;;;;;;;;10007616;29;20083;-59
2021/12/31 09:45:31;;;;;;;50.38;32.45;;;;;;;;;;10006813;29;20090;-59
2021/12/31 09:50:35;;;;;;;31.60;22.80;;;;;;;;;;10028013;29;20083;-59
2021/12/31 09:55:37;;;;;;;22.73;17.63;;;;;;;;;;10025977;29;20501;-59
2021/12/31 10:00:36;;;;;;;22.05;15.73;;;;;;;;;;9993739;29;20095;-58
2021/12/31 10:05:41;;;;;;;24.02;16.73;;;;;;;;;;9989814;29;20087;-59
2021/12/31 10:10:39;;;;;;;25.30;18.23;;;;;;;;;;9992713;29;20080;-58
2021/12/31 10:15:40;;;;;;;21.90;16.35;;;;;;;;;;9984157;29;20075;-59
2021/12/31 10:20:50;;;;;;;61.50;34.28;;;;;;;;;;9982544;29;20091;-59
2021/12/31 10:25:48;;;;;;;15.32;12.05;;;;;;;;;;9988063;29;20086;-59
2021/12/31 10:30:47;;;;;;;17.52;14.27;;;;;;;;;;9984790;29;20083;-59
2021/12/31 10:35:46;;;;;;;17.63;13.15;;;;;;;;;;9987263;29;20111;-57
2021/12/31 10:40:46;;;;;;;18.98;15.60;;;;;;;;;;9990141;29;20087;-59
2021/12/31 10:45:58;;;;;;;32.88;25.23;;;;;;;;;;9976105;29;20068;-59
2021/12/31 10:50:57;;;;;;;22.08;15.88;;;;;;;;;;9983787;29;20072;-58
2021/12/31 10:56:04;;;;;;;27.15;19.88;;;;;;;;;;9987513;29;20071;-59
2021/12/31 11:01:04;;;;;;;19.30;13.68;;;;;;;;;;9976864;29;20080;-59
2021/12/31 11:06:03;;;;;;;23.67;18.17;;;;;;;;;;9985008;29;20083;-57
2021/12/31 11:11:04;;;;;;;20.63;13.50;;;;;;;;;;9975492;29;20084;-57
2021/12/31 11:16:02;;;;;;;18.63;14.55;;;;;;;;;;9982767;29;20075;-58
2021/12/31 11:21:02;;;;;;;22.08;17.08;;;;;;;;;;9992564;29;20072;-57
2021/12/31 11:26:04;;;;;;;14.25;12.05;;;;;;;;;;9982579;29;20087;-57
2021/12/31 11:31:20;;;;;;;32.47;23.38;;;;;;;;;;9989178;29;20075;-57
2021/12/31 11:36:36;;;;;;;43.50;31.48;;;;;;;;;;9981088;29;20072;-59
2021/12/31 11:41:36;;;;;;;27.00;20.58;;;;;;;;;;10000330;29;20084;-58
2021/12/31 11:46:36;;;;;;;31.10;22.38;;;;;;;;;;9997817;29;20076;-59
2021/12/31 11:51:38;;;;;;;55.85;37.85;;;;;;;;;;9974927;29;20079;-58
2021/12/31 11:56:57;;;;;;;28.05;23.02;;;;;;;;;;9987304;29;20084;-57
2021/12/31 12:02:05;;;;;;;57.25;39.05;;;;;;;;;;9992206;29;20091;-58
2021/12/31 12:07:06;;;;;;;44.95;29.20;;;;;;;;;;10000333;29;20074;-58
2021/12/31 12:12:05;;;;;;;49.72;31.48;;;;;;;;;;10000638;29;20095;-57
2021/12/31 12:17:04;;;;;;;58.10;35.60;;;;;;;;;;9990797;29;20072;-57
2021/12/31 12:22:03;;;;;;;25.13;18.33;;;;;;;;;;9993880;29;20094;-57
2021/12/31 12:27:03;;;;;;;27.10;17.90;;;;;;;;;;9995666;29;20494;-58
2021/12/31 12:32:07;;;;;;;40.40;24.10;;;;;;;;;;9995728;29;20084;-59
2021/12/31 12:37:06;;;;;;;43.60;27.20;;;;;;;;;;10016743;29;20498;-58
2021/12/31 12:42:07;;;;;;;29.75;19.95;;;;;;;;;;10015647;29;20381;-58
2021/12/31 12:47:06;;;;;;;46.95;31.30;;;;;;;;;;9988167;29;20071;-56
2021/12/31 12:52:11;;;;;;;32.03;21.05;;;;;;;;;;9972735;29;20474;-59
2021/12/31 12:57:11;;;;;;;45.15;28.08;;;;;;;;;;9978575;29;20408;-56
2021/12/31 13:02:09;;;;;;;46.65;31.73;;;;;;;;;;9995649;29;20072;-57
2021/12/31 13:07:10;;;;;;;45.05;29.70;;;;;;;;;;9972277;29;20072;-58
2021/12/31 13:12:15;;;;;;;36.72;24.77;;;;;;;;;;9974400;29;20534;-58
2021/12/31 13:17:22;;;;;;;43.13;29.25;;;;;;;;;;9992932;29;20075;-58
2021/12/31 13:22:20;;;;;;;67.55;42.15;;;;;;;;;;9976847;29;20548;-58
2021/12/31 13:27:20;;;;;;;46.65;31.13;;;;;;;;;;9992410;29;20072;-57
2021/12/31 13:32:22;;;;;;;73.05;47.58;;;;;;;;;;9989277;29;20492;-58
2021/12/31 13:37:24;;;;;;;100.05;66.72;;;;;;;;;;9989220;29;20526;-59
2021/12/31 13:42:22;;;;;;;133.82;82.65;;;;;;;;;;10010036;29;20087;-58
2021/12/31 13:47:22;;;;;;;182.20;111.03;;;;;;;;;;10018068;29;20083;-58
2021/12/31 13:52:22;;;;;;;102.15;71.03;;;;;;;;;;9989312;29;20075;-56
2021/12/31 13:57:22;;;;;;;36.95;29.15;;;;;;;;;;9984952;29;20083;-57
2021/12/31 14:02:22;;;;;;;35.30;26.10;;;;;;;;;;9990767;29;20501;-59
2021/12/31 14:07:28;;;;;;;71.80;54.50;;;;;;;;;;9968413;29;20076;-57
2021/12/31 14:12:27;;;;;;;59.55;43.03;;;;;;;;;;9978284;29;20071;-58
2021/12/31 14:17:27;;;;;;;60.83;42.70;;;;;;;;;;9989887;29;20082;-59
2021/12/31 14:22:25;;;;;;;62.33;45.53;;;;;;;;;;9981357;29;20525;-59
2021/12/31 14:27:23;;;;;;;36.13;25.83;;;;;;;;;;9988219;29;20063;-59
2021/12/31 14:32:22;;;;;;;31.30;21.13;;;;;;;;;;9986984;29;20071;-58
2021/12/31 14:37:21;;;;;;;30.45;19.35;;;;;;;;;;9994080;29;20490;-58
2021/12/31 14:42:20;;;;;;;26.88;18.15;;;;;;;;;;9965692;29;20140;-58
2021/12/31 14:47:19;;;;;;;27.83;18.90;;;;;;;;;;9993098;29;20592;-58
2021/12/31 14:52:17;;;;;;;19.50;14.88;;;;;;;;;;9993155;29;20067;-58
2021/12/31 14:57:17;;;;;;;23.17;15.90;;;;;;;;;;9995976;29;20067;-57
2021/12/31 15:02:15;;;;;;;26.73;15.73;;;;;;;;;;9992791;29;20070;-59
2021/12/31 15:07:14;;;;;;;33.50;22.60;;;;;;;;;;10004072;29;20480;-59
2021/12/31 15:12:12;;;;;;;22.13;17.80;;;;;;;;;;10005487;29;20062;-59
2021/12/31 15:17:13;;;;;;;30.30;22.25;;;;;;;;;;10023179;29;20071;-57
2021/12/31 15:22:11;;;;;;;24.27;19.42;;;;;;;;;;10001027;29;20059;-58
2021/12/31 15:27:11;;;;;;;31.50;22.77;;;;;;;;;;9993209;29;20072;-58
2021/12/31 15:32:13;;;;;;;28.08;22.00;;;;;;;;;;10010548;29;20590;-58
2021/12/31 15:37:12;;;;;;;34.63;22.90;;;;;;;;;;10011377;29;20082;-58
2021/12/31 15:42:10;;;;;;;22.38;16.75;;;;;;;;;;9993507;29;20087;-58
2021/12/31 15:47:09;;;;;;;24.33;16.38;;;;;;;;;;10012319;29;20078;-59
2021/12/31 15:52:09;;;;;;;17.55;12.32;;;;;;;;;;10007255;29;20583;-58
2021/12/31 15:57:07;;;;;;;16.80;13.05;;;;;;;;;;9999881;29;20091;-59
2021/12/31 16:02:06;;;;;;;16.40;13.23;;;;;;;;;;10008774;29;20087;-59
2021/12/31 16:07:05;;;;;;;28.70;20.77;;;;;;;;;;9999824;29;20513;-59
2021/12/31 16:12:05;;;;;;;26.92;19.38;;;;;;;;;;9998828;29;20504;-59
2021/12/31 16:17:03;;;;;;;25.45;18.75;;;;;;;;;;9983670;29;20128;-58
2021/12/31 16:22:04;;;;;;;19.80;15.10;;;;;;;;;;9977821;29;20083;-59
2021/12/31 16:27:08;;;;;;;18.58;14.48;;;;;;;;;;10017245;29;20075;-58
2021/12/31 16:32:07;;;;;;;25.33;16.55;;;;;;;;;;10007018;29;20078;-58
2021/12/31 16:37:05;;;;;;;25.65;18.13;;;;;;;;;;10001011;29;20074;-58
2021/12/31 16:42:04;;;;;;;22.25;15.85;;;;;;;;;;9987124;29;20508;-58
2021/12/31 16:47:04;;;;;;;19.13;15.35;;;;;;;;;;9987628;29;20139;-58
2021/12/31 16:52:02;;;;;;;13.45;11.20;;;;;;;;;;9993839;29;20063;-58
2021/12/31 16:57:00;;;;;;;22.15;16.30;;;;;;;;;;9979134;29;20067;-59
2021/12/31 17:01:59;;;;;;;13.45;11.70;;;;;;;;;;9987483;29;20067;-58
2021/12/31 17:07:04;;;;;;;14.10;12.50;;;;;;;;;;9987233;29;20071;-58
2021/12/31 17:12:07;;;;;;;;;;;;;;;;;;9996894;29;20079;-59
2021/12/31 17:17:05;;;;;;;13.90;10.80;;;;;;;;;;9987038;29;19961;-59
2021/12/31 17:22:06;;;;;;;21.58;14.43;;;;;;;;;;9997612;29;20303;-57
2021/12/31 17:27:04;;;;;;;19.83;12.57;;;;;;;;;;9990063;29;20485;-58
2021/12/31 17:32:05;;;;;;;30.65;22.50;;;;;;;;;;10003407;29;20548;-59
2021/12/31 17:37:03;;;;;;;30.92;20.67;;;;;;;;;;10004865;29;20075;-59
2021/12/31 17:42:03;;;;;;;120.40;79.72;;;;;;;;;;10021625;29;20078;-58
2021/12/31 17:47:02;;;;;;;44.70;33.63;;;;;;;;;;10019482;29;20075;-58
2021/12/31 17:52:00;;;;;;;14.13;10.07;;;;;;;;;;9987223;29;20464;-58
2021/12/31 17:56:58;;;;;;;37.72;24.33;;;;;;;;;;10005721;29;20068;-58
2021/12/31 18:02:05;;;;;;;38.25;27.42;;;;;;;;;;10351316;27;20940;-58
2021/12/31 18:07:03;;;;;;;74.75;47.17;;;;;;;;;;10344165;28;20076;-59
2021/12/31 18:12:02;;;;;;;74.10;42.92;;;;;;;;;;10340741;28;20071;-58
2021/12/31 18:17:00;;;;;;;68.97;38.83;;;;;;;;;;10344018;28;20075;-59
2021/12/31 18:22:00;;;;;;;56.05;35.83;;;;;;;;;;10345313;28;20060;-59
2021/12/31 18:26:58;;;;;;;42.42;30.02;;;;;;;;;;10344455;28;20529;-59
2021/12/31 18:31:57;;;;;;;200.57;133.85;;;;;;;;;;10342336;28;20064;-58
2021/12/31 18:36:55;;;;;;;134.18;90.65;;;;;;;;;;10342287;28;20059;-59
2021/12/31 18:41:55;;;;;;;61.80;43.58;;;;;;;;;;10342905;28;20087;-59
2021/12/31 18:46:55;;;;;;;137.23;102.25;;;;;;;;;;10342374;28;20082;-58
2021/12/31 18:51:54;;;;;;;107.30;68.25;;;;;;;;;;10339669;28;20075;-58
2021/12/31 18:56:52;;;;;;;88.63;57.60;;;;;;;;;;10337864;28;20481;-58
2021/12/31 19:01:52;;;;;;;102.75;64.15;;;;;;;;;;10343411;28;20080;-58
2021/12/31 19:06:51;;;;;;;193.18;136.68;;;;;;;;;;10342311;28;20075;-58
2021/12/31 19:11:49;;;;;;;89.03;55.22;;;;;;;;;;10319535;28;20102;-58
2021/12/31 19:16:48;;;;;;;53.28;34.40;;;;;;;;;;10309908;28;20068;-58
2021/12/31 19:21:47;;;;;;;46.67;30.92;;;;;;;;;;10301679;28;20265;-58
2021/12/31 19:26:46;;;;;;;24.88;16.20;;;;;;;;;;10307586;28;20061;-58
2021/12/31 19:31:44;;;;;;;39.17;26.65;;;;;;;;;;10301759;28;20071;-59
2021/12/31 19:36:42;;;;;;;21.80;15.45;;;;;;;;;;10308149;28;20068;-55
2021/12/31 19:41:42;;;;;;;18.60;13.55;;;;;;;;;;10305643;28;20083;-56
2021/12/31 19:46:40;;;;;;;22.15;14.45;;;;;;;;;;10307891;28;20074;-59
2021/12/31 19:51:39;;;;;;;16.05;12.15;;;;;;;;;;10310217;28;20072;-59
2021/12/31 19:56:37;;;;;;;14.45;12.20;;;;;;;;;;10295519;28;20127;-59
2021/12/31 20:01:37;;;;;;;13.77;10.38;;;;;;;;;;10224747;28;20055;-60
2021/12/31 20:06:35;;;;;;;19.77;15.38;;;;;;;;;;10269740;28;20118;-59
2021/12/31 20:11:34;;;;;;;14.15;9.77;;;;;;;;;;10317935;28;20071;-59
2021/12/31 20:16:32;;;;;;;16.30;11.00;;;;;;;;;;10317613;28;20052;-59
2021/12/31 20:21:32;;;;;;;15.68;10.55;;;;;;;;;;10315453;28;20080;-59
2021/12/31 20:26:30;;;;;;;17.98;13.05;;;;;;;;;;10311210;28;20564;-59
2021/12/31 20:31:28;;;;;;;18.63;13.45;;;;;;;;;;10308276;28;20060;-59
2021/12/31 20:36:27;;;;;;;42.42;25.88;;;;;;;;;;10262509;28;20068;-60
2021/12/31 20:41:26;;;;;;;21.35;16.30;;;;;;;;;;10298702;28;20163;-59
2021/12/31 20:46:25;;;;;;;16.85;13.35;;;;;;;;;;10273099;28;20094;-59
2021/12/31 20:51:23;;;;;;;27.90;18.75;;;;;;;;;;10300620;28;20061;-58
2021/12/31 20:56:21;;;;;;;24.80;17.17;;;;;;;;;;10304279;28;20084;-58
2021/12/31 21:01:21;;;;;;;41.75;26.38;;;;;;;;;;10305444;28;20514;-58
2021/12/31 21:06:19;;;;;;;31.55;19.88;;;;;;;;;;10307641;28;20106;-58
2021/12/31 21:11:18;;;;;;;19.15;13.77;;;;;;;;;;10307766;28;20738;-58
2021/12/31 21:16:16;;;;;;;29.25;19.10;;;;;;;;;;10303349;28;20071;-59
2021/12/31 21:21:16;;;;;;;41.58;26.67;;;;;;;;;;10303068;28;20072;-58
2021/12/31 21:26:14;;;;;;;65.75;39.75;;;;;;;;;;10302157;28;20075;-58
2021/12/31 21:31:16;;;;;;;18.27;13.15;;;;;;;;;;10306652;28;20501;-58
2021/12/31 21:36:16;;;;;;;29.75;20.35;;;;;;;;;;10303572;28;20072;-57
2021/12/31 21:41:14;;;;;;;17.38;12.93;;;;;;;;;;10306928;28;20074;-58
2021/12/31 21:46:13;;;;;;;16.15;12.18;;;;;;;;;;10301601;28;20064;-59
2021/12/31 21:51:11;;;;;;;17.40;11.13;;;;;;;;;;10303692;28;20071;-57
2021/12/31 21:56:11;;;;;;;20.83;11.18;;;;;;;;;;10304901;28;20068;-57
2021/12/31 22:01:09;;;;;;;21.15;15.57;;;;;;;;;;10291181;28;20599;-57
2021/12/31 22:06:07;;;;;;;364.98;222.07;;;;;;;;;;10305065;28;20120;-56
2021/12/31 22:11:06;;;;;;;131.38;84.10;;;;;;;;;;10297894;28;20130;-54
2021/12/31 22:16:06;;;;;;;104.38;51.67;;;;;;;;;;10306009;28;20072;-57
2021/12/31 22:21:04;;;;;;;31.70;20.80;;;;;;;;;;10300967;28;20088;-54
2021/12/31 22:26:03;;;;;;;31.85;22.48;;;;;;;;;;10296825;28;20527;-57
2021/12/31 22:31:01;;;;;;;14.02;11.57;;;;;;;;;;10304579;28;20504;-56
2021/12/31 22:36:01;;;;;;;9.55;7.78;;;;;;;;;;10300846;28;20060;-53
2021/12/31 22:40:59;;;;;;;10.68;7.72;;;;;;;;;;10297088;28;21484;-56
2021/12/31 22:45:58;;;;;;;9.30;7.65;;;;;;;;;;10307747;28;20071;-55
2021/12/31 22:50:56;;;;;;;10.43;7.18;;;;;;;;;;10311165;28;20068;-57
2021/12/31 22:55:56;;;;;;;14.50;9.60;;;;;;;;;;10303932;28;20469;-56
2021/12/31 23:01:10;;;;;;;12.25;9.20;;;;;;;;;;10309754;28;20083;-56
2021/12/31 23:06:10;;;;;;;10.90;8.13;;;;;;;;;;10313507;28;20111;-56
2021/12/31 23:11:11;;;;;;;11.35;8.40;;;;;;;;;;10309265;28;20519;-57
2021/12/31 23:16:10;;;;;;;13.13;9.30;;;;;;;;;;10312201;28;20083;-55
2021/12/31 23:21:09;;;;;;;14.98;10.52;;;;;;;;;;10310237;28;20084;-57
2021/12/31 23:26:13;;;;;;;8.45;6.72;;;;;;;;;;10307929;28;20457;-57
2021/12/31 23:31:13;;;;;;;7.45;5.93;;;;;;;;;;10314373;28;20098;-56
2021/12/31 23:36:11;;;;;;;12.77;7.30;;;;;;;;;;10301055;28;20064;-56
2021/12/31 23:41:14;;;;;;;13.85;9.70;;;;;;;;;;10297933;28;20121;-57
2021/12/31 23:46:14;;;;;;;19.15;12.82;;;;;;;;;;10299846;28;20067;-56
2021/12/31 23:51:13;;;;;;;8.52;7.45;;;;;;;;;;10303362;28;20390;-57
2021/12/31 23:56:11;;;;;;;11.02;8.30;;;;;;;;;;10301856;28;20116;-57
